createdAt,value
2023-01-17T00:02:09.358Z,3.48
2023-01-17T00:05:00.760Z,3.45
2023-01-17T00:07:47.447Z,3.39
2023-01-17T00:10:19.087Z,3.40
2023-01-17T00:12:49.973Z,3.37
2023-01-17T00:15:19.895Z,3.35
2023-01-17T00:17:48.892Z,3.34
2023-01-17T00:20:36.911Z,3.33
2023-01-17T00:23:24.631Z,3.30
2023-01-17T00:26:07.254Z,3.24
2023-01-17T00:28:36.613Z,3.18
2023-01-17T00:31:04.688Z,3.14
2023-01-17T00:33:31.898Z,3.12
2023-01-17T00:36:00.047Z,3.06
2023-01-17T00:38:28.961Z,3.13
2023-01-17T00:41:02.437Z,3.04
2023-01-17T00:43:48.402Z,3.06
2023-01-17T00:46:34.435Z,3.02
2023-01-17T00:49:20.116Z,3.02
2023-01-17T00:52:05.657Z,3.06
2023-01-17T00:54:50.958Z,3.07
2023-01-17T00:57:38.151Z,3.09
2023-01-17T01:00:24.767Z,3.07
2023-01-17T01:03:10.549Z,3.11
2023-01-17T01:05:56.216Z,3.11
2023-01-17T01:08:43.602Z,3.06
2023-01-17T01:11:31.288Z,3.09
2023-01-17T01:14:19.030Z,3.09
2023-01-17T01:17:05.268Z,3.12
2023-01-17T01:19:50.601Z,3.08
2023-01-17T01:22:36.062Z,3.11
2023-01-17T01:25:22.491Z,3.08
2023-01-17T01:28:07.999Z,3.10
2023-01-17T01:30:55.599Z,3.17
2023-01-17T01:33:22.337Z,3.10
2023-01-17T01:35:52.470Z,3.11
2023-01-17T01:38:22.494Z,3.08
2023-01-17T01:40:52.779Z,3.16
2023-01-17T01:43:22.727Z,3.10
2023-01-17T01:45:56.587Z,3.11
2023-01-17T01:48:36.941Z,3.05
2023-01-17T01:51:10.070Z,3.12
2023-01-17T01:53:41.742Z,3.09
2023-01-17T01:56:13.362Z,3.11
2023-01-17T01:58:43.489Z,3.07
2023-01-17T02:01:15.342Z,3.03
2023-01-17T02:03:44.180Z,3.01
2023-01-17T02:06:24.607Z,3.04
2023-01-17T02:08:52.975Z,3.02
2023-01-17T02:11:20.889Z,3.07
2023-01-17T02:13:48.811Z,3.07
2023-01-17T02:16:34.935Z,3.10
2023-01-17T02:19:24.088Z,3.04
2023-01-17T02:22:04.780Z,3.03
2023-01-17T02:24:59.108Z,3.04
2023-01-17T02:27:29.349Z,3.05
2023-01-17T02:30:33.671Z,3.08
2023-01-17T02:33:07.951Z,3.11
2023-01-17T02:35:42.392Z,3.09
2023-01-17T02:38:22.384Z,3.11
2023-01-17T02:40:54.514Z,3.09
2023-01-17T02:43:26.147Z,3.09
2023-01-17T02:45:55.520Z,3.09
2023-01-17T02:48:27.954Z,3.10
2023-01-17T02:51:09.980Z,3.10
2023-01-17T02:53:50.118Z,3.10
2023-01-17T02:56:35.116Z,3.12
2023-01-17T02:59:11.320Z,3.11
2023-01-17T03:01:49.647Z,3.11
2023-01-17T03:04:25.986Z,3.11
2023-01-17T03:06:59.280Z,3.10
2023-01-17T03:09:28.437Z,3.10
2023-01-17T03:11:56.643Z,3.11
2023-01-17T03:14:24.504Z,3.15
2023-01-17T03:16:55.010Z,3.10
2023-01-17T03:19:23.623Z,3.12
2023-01-17T03:21:51.553Z,3.08
2023-01-17T03:24:19.900Z,3.09
2023-01-17T03:26:47.988Z,3.08
2023-01-17T03:29:16.813Z,3.07
2023-01-17T03:31:45.233Z,3.08
2023-01-17T03:34:15.037Z,3.04
2023-01-17T03:36:42.954Z,3.07
2023-01-17T03:39:12.275Z,3.12
2023-01-17T03:41:40.329Z,3.07
2023-01-17T03:44:08.221Z,3.05
2023-01-17T03:46:36.980Z,3.07
2023-01-17T03:49:04.928Z,3.06
2023-01-17T03:51:34.236Z,3.04
2023-01-17T03:54:02.965Z,3.04
2023-01-17T03:56:30.894Z,3.04
2023-01-17T03:58:58.971Z,3.03
2023-01-17T04:01:27.544Z,3.00
2023-01-17T04:03:55.560Z,2.97
2023-01-17T04:06:23.819Z,2.99
2023-01-17T04:08:53.554Z,2.98
2023-01-17T04:11:21.425Z,2.97
2023-01-17T04:13:49.301Z,2.95
2023-01-17T04:16:19.399Z,2.94
2023-01-17T04:18:47.254Z,2.92
2023-01-17T04:21:15.297Z,2.92
2023-01-17T04:23:43.631Z,2.82
2023-01-17T04:26:13.375Z,2.73
2023-01-17T04:28:41.379Z,2.73
2023-01-17T04:31:14.813Z,2.66
2023-01-17T04:33:42.770Z,2.57
2023-01-17T04:36:11.319Z,2.52
2023-01-17T04:38:39.326Z,2.45
2023-01-17T04:41:07.194Z,2.41
2023-01-17T04:43:36.492Z,2.39
2023-01-17T04:46:10.359Z,2.39
2023-01-17T04:48:38.596Z,2.35
2023-01-17T04:51:07.452Z,2.33
2023-01-17T04:53:35.588Z,2.32
2023-01-17T04:56:03.697Z,2.30
2023-01-17T04:58:33.369Z,2.29
2023-01-17T05:01:04.916Z,2.29
2023-01-17T05:03:33.079Z,2.29
2023-01-17T05:06:00.958Z,2.32
2023-01-17T05:08:29.784Z,2.26
2023-01-17T05:10:57.623Z,2.25
2023-01-17T05:13:25.941Z,2.24
2023-01-17T05:15:54.696Z,2.26
2023-01-17T05:18:24.009Z,2.26
2023-01-17T05:20:51.910Z,2.22
2023-01-17T05:23:20.308Z,2.20
2023-01-17T05:25:48.194Z,2.23
2023-01-17T05:28:16.233Z,2.20
2023-01-17T05:30:44.560Z,2.24
2023-01-17T05:33:12.454Z,2.20
2023-01-17T05:35:41.746Z,2.18
2023-01-17T05:38:10.460Z,2.18
2023-01-17T05:40:38.295Z,2.14
2023-01-17T05:43:06.276Z,2.13
2023-01-17T05:45:34.991Z,2.10
2023-01-17T05:48:04.191Z,2.09
2023-01-17T05:50:34.343Z,2.06
2023-01-17T05:53:05.960Z,2.06
2023-01-17T05:55:35.135Z,2.08
2023-01-17T05:58:03.397Z,2.02
2023-01-17T06:00:32.631Z,2.02
2023-01-17T06:03:01.676Z,2.01
2023-01-17T06:05:33.633Z,2.00
2023-01-17T06:08:02.953Z,2.00
2023-01-17T06:10:31.106Z,2.00
2023-01-17T06:13:04.201Z,2.02
2023-01-17T06:15:32.601Z,1.98
2023-01-17T06:18:06.112Z,1.97
2023-01-17T06:20:34.562Z,1.98
2023-01-17T06:23:05.544Z,1.98
2023-01-17T06:25:38.384Z,1.96
2023-01-17T06:28:07.114Z,1.97
2023-01-17T06:30:35.302Z,1.96
2023-01-17T06:33:03.457Z,1.94
2023-01-17T06:35:31.458Z,1.90
2023-01-17T06:38:00.559Z,1.90
2023-01-17T06:40:31.674Z,1.80
2023-01-17T06:43:02.239Z,1.75
2023-01-17T06:45:31.007Z,1.70
2023-01-17T06:48:00.180Z,1.71
2023-01-17T06:50:28.411Z,1.67
2023-01-17T06:52:57.661Z,1.63
2023-01-17T06:55:28.966Z,1.58
2023-01-17T06:57:59.564Z,1.58
2023-01-17T07:00:30.785Z,1.53
2023-01-17T07:03:00.149Z,1.53
2023-01-17T07:05:28.539Z,1.50
2023-01-17T07:07:56.699Z,1.54
2023-01-17T07:10:25.049Z,1.46
2023-01-17T07:12:53.272Z,1.44
2023-01-17T07:15:22.486Z,1.46
2023-01-17T07:17:50.382Z,1.37
2023-01-17T07:20:20.036Z,1.32
2023-01-17T07:22:48.144Z,1.23
2023-01-17T07:25:17.607Z,1.23
2023-01-17T07:27:45.674Z,1.15
2023-01-17T07:30:14.511Z,1.09
2023-01-17T07:32:43.848Z,1.08
2023-01-17T07:35:11.751Z,1.09
2023-01-17T07:37:40.023Z,1.12
2023-01-17T07:40:09.746Z,1.21
2023-01-17T07:42:38.121Z,1.20
2023-01-17T07:45:07.584Z,1.24
2023-01-17T07:47:35.924Z,1.23
2023-01-17T07:50:06.028Z,1.28
2023-01-17T07:52:34.033Z,1.28
2023-01-17T07:55:02.571Z,1.34
2023-01-17T07:57:32.682Z,1.40
2023-01-17T08:00:00.527Z,1.34
2023-01-17T08:02:28.437Z,1.43
2023-01-17T08:04:59.732Z,1.36
2023-01-17T08:07:30.085Z,1.38
2023-01-17T08:10:03.124Z,1.35
2023-01-17T08:12:31.525Z,1.30
2023-01-17T08:15:00.128Z,1.31
2023-01-17T08:17:28.430Z,1.30
2023-01-17T08:19:56.710Z,1.33
2023-01-17T08:22:24.737Z,1.41
2023-01-17T08:24:54.306Z,1.44
2023-01-17T08:27:22.783Z,1.52
2023-01-17T08:29:50.861Z,1.51
2023-01-17T08:32:19.944Z,1.56
2023-01-17T08:34:48.279Z,1.43
2023-01-17T08:37:16.180Z,1.42
2023-01-17T08:39:44.305Z,1.41
2023-01-17T08:42:13.930Z,1.48
2023-01-17T08:44:43.582Z,1.54
2023-01-17T08:47:11.716Z,1.66
2023-01-17T08:49:40.163Z,1.73
2023-01-17T08:52:08.934Z,1.74
2023-01-17T08:54:36.774Z,1.76
2023-01-17T08:57:05.738Z,1.94
2023-01-17T08:59:35.054Z,1.93
2023-01-17T09:02:07.145Z,2.08
2023-01-17T09:04:35.150Z,2.15
2023-01-17T09:07:03.263Z,2.25
2023-01-17T09:09:31.652Z,2.41
2023-01-17T09:11:59.510Z,2.49
2023-01-17T09:14:27.505Z,2.60
2023-01-17T09:16:57.461Z,2.74
2023-01-17T09:19:25.305Z,2.84
2023-01-17T09:21:53.214Z,2.99
2023-01-17T09:24:21.129Z,3.14
2023-01-17T09:26:49.012Z,3.22
2023-01-17T09:29:17.977Z,3.34
2023-01-17T09:31:47.819Z,3.46
2023-01-17T09:34:18.619Z,3.52
2023-01-17T09:36:46.700Z,3.62
2023-01-17T09:39:16.235Z,3.66
2023-01-17T09:41:53.306Z,3.72
2023-01-17T09:44:29.252Z,3.76
2023-01-17T09:47:00.777Z,3.82
2023-01-17T09:49:38.929Z,3.82
2023-01-17T09:52:09.831Z,3.81
2023-01-17T09:54:41.395Z,3.83
2023-01-17T09:57:19.495Z,3.90
2023-01-17T10:00:03.191Z,3.99
2023-01-17T10:02:54.900Z,4.13
2023-01-17T10:05:51.477Z,4.14
2023-01-17T10:08:32.634Z,4.26
2023-01-17T10:11:25.880Z,4.39
2023-01-17T10:14:05.281Z,4.49
2023-01-17T10:16:46.209Z,4.61
2023-01-17T10:19:33.343Z,4.62
2023-01-17T10:22:30.949Z,4.70
2023-01-17T10:25:23.652Z,4.87
2023-01-17T10:28:01.157Z,4.95
2023-01-17T10:30:36.807Z,5.04
2023-01-17T10:33:14.610Z,5.18
2023-01-17T10:35:53.120Z,5.36
2023-01-17T10:38:27.364Z,5.48
2023-01-17T10:41:00.955Z,5.58
2023-01-17T10:43:38.577Z,5.65
2023-01-17T10:46:06.930Z,5.76
2023-01-17T10:48:40.302Z,5.86
2023-01-17T10:51:27.978Z,5.98
2023-01-17T10:54:12.763Z,6.01
2023-01-17T10:56:42.637Z,6.13
2023-01-17T10:59:19.915Z,6.16
2023-01-17T11:01:51.013Z,6.20
2023-01-17T11:04:22.268Z,6.17
2023-01-17T11:07:14.728Z,6.21
2023-01-17T11:09:46.904Z,6.32
2023-01-17T11:12:30.756Z,6.42
2023-01-17T11:15:03.777Z,6.51
2023-01-17T11:17:33.619Z,6.65
2023-01-17T11:20:20.108Z,6.66
2023-01-17T11:23:03.626Z,6.69
2023-01-17T11:25:35.498Z,6.74
2023-01-17T11:28:06.335Z,6.84
2023-01-17T11:30:34.346Z,6.87
2023-01-17T11:33:06.577Z,6.86
2023-01-17T11:35:36.787Z,6.79
2023-01-17T11:38:08.208Z,6.90
2023-01-17T11:40:41.169Z,6.87
2023-01-17T11:43:24.396Z,6.86
2023-01-17T11:46:04.990Z,6.89
2023-01-17T11:48:38.958Z,7.06
2023-01-17T11:51:19.658Z,7.04
2023-01-17T11:53:49.646Z,7.11
2023-01-17T11:56:28.943Z,7.10
2023-01-17T11:59:15.451Z,7.18
2023-01-17T12:01:50.725Z,7.27
2023-01-17T12:04:26.087Z,7.35
2023-01-17T12:07:24.388Z,7.48
2023-01-17T12:10:04.270Z,7.57
2023-01-17T12:13:01.821Z,7.73
2023-01-17T12:15:44.915Z,7.76
2023-01-17T12:18:30.301Z,7.65
2023-01-17T12:21:12.700Z,7.39
2023-01-17T12:24:01.960Z,7.09
2023-01-17T12:26:39.501Z,6.84
2023-01-17T12:29:31.461Z,6.68
2023-01-17T12:32:15.910Z,6.61
2023-01-17T12:34:51.857Z,6.49
2023-01-17T12:37:24.830Z,6.50
2023-01-17T12:39:59.539Z,6.44
2023-01-17T12:42:32.971Z,6.39
2023-01-17T12:45:06.960Z,6.38
2023-01-17T12:47:43.221Z,6.20
2023-01-17T12:50:22.346Z,6.20
2023-01-17T12:53:03.689Z,6.12
2023-01-17T12:55:38.595Z,6.21
2023-01-17T12:58:18.011Z,6.04
2023-01-17T13:00:52.407Z,5.91
2023-01-17T13:03:27.823Z,5.86
2023-01-17T13:05:58.666Z,5.97
2023-01-17T13:08:35.510Z,5.91
2023-01-17T13:11:10.604Z,5.81
2023-01-17T13:13:39.747Z,5.69
2023-01-17T13:16:16.121Z,5.64
2023-01-17T13:18:47.517Z,5.69
2023-01-17T13:21:31.330Z,5.61
2023-01-17T13:24:17.643Z,5.49
2023-01-17T13:27:01.224Z,5.46
2023-01-17T13:29:42.130Z,5.41
2023-01-17T13:32:27.635Z,5.45
2023-01-17T13:35:15.953Z,5.48
2023-01-17T13:37:59.342Z,5.34
2023-01-17T13:40:35.356Z,5.35
2023-01-17T13:43:05.219Z,5.25
2023-01-17T13:45:35.825Z,5.21
2023-01-17T13:48:31.126Z,5.18
2023-01-17T13:51:02.647Z,5.05
2023-01-17T13:53:49.262Z,4.93
2023-01-17T13:56:35.729Z,4.97
2023-01-17T13:59:08.328Z,5.00
2023-01-17T14:01:53.749Z,4.94
2023-01-17T14:04:24.554Z,4.93
2023-01-17T14:06:55.581Z,4.89
2023-01-17T14:09:28.445Z,4.84
2023-01-17T14:12:00.943Z,4.81
2023-01-17T14:14:56.996Z,4.83
2023-01-17T14:17:58.975Z,4.77
2023-01-17T14:20:44.626Z,4.73
2023-01-17T14:23:27.343Z,4.78
2023-01-17T14:25:58.821Z,4.73
2023-01-17T14:28:32.301Z,4.66
2023-01-17T14:31:03.384Z,4.70
2023-01-17T14:33:36.515Z,4.65
2023-01-17T14:36:08.433Z,4.63
2023-01-17T14:38:43.983Z,4.61
2023-01-17T14:41:18.603Z,4.63
2023-01-17T14:43:49.307Z,4.65
2023-01-17T14:46:23.082Z,4.60
2023-01-17T14:48:52.231Z,4.52
2023-01-17T14:51:24.976Z,4.50
2023-01-17T14:53:55.864Z,4.41
2023-01-17T14:56:24.967Z,4.41
2023-01-17T14:59:07.061Z,4.40
2023-01-17T15:01:38.429Z,4.39
2023-01-17T15:04:07.258Z,4.34
2023-01-17T15:06:39.545Z,4.27
2023-01-17T15:09:12.336Z,4.30
2023-01-17T15:11:40.736Z,4.21
2023-01-17T15:14:09.450Z,4.33
2023-01-17T15:16:40.624Z,4.25
2023-01-17T15:19:13.103Z,4.16
2023-01-17T15:21:44.945Z,4.18
2023-01-17T15:24:20.053Z,4.09
2023-01-17T15:26:49.398Z,4.03
2023-01-17T15:29:26.389Z,4.04
2023-01-17T15:31:58.648Z,4.02
2023-01-17T15:34:30.222Z,3.96
2023-01-17T15:37:02.718Z,3.96
2023-01-17T15:39:33.106Z,3.96
2023-01-17T15:42:04.617Z,3.84
2023-01-17T15:44:47.622Z,3.87
2023-01-17T15:47:29.919Z,3.80
2023-01-17T15:49:57.962Z,3.75
2023-01-17T15:52:27.953Z,3.77
2023-01-17T15:55:01.174Z,3.68
2023-01-17T15:57:31.698Z,3.65
2023-01-17T16:00:05.800Z,3.64
2023-01-17T16:02:37.384Z,3.61
2023-01-17T16:05:39.136Z,3.56
2023-01-17T16:08:39.238Z,3.54
2023-01-17T16:11:08.841Z,3.53
2023-01-17T16:13:42.206Z,3.69
2023-01-17T16:16:16.167Z,3.61
2023-01-17T16:18:47.072Z,3.61
2023-01-17T16:21:23.381Z,3.53
2023-01-17T16:23:54.405Z,3.51
2023-01-17T16:26:23.743Z,3.47
2023-01-17T16:28:51.978Z,3.48
2023-01-17T16:31:22.109Z,3.46
2023-01-17T16:33:51.840Z,3.48
2023-01-17T16:36:21.417Z,3.47
2023-01-17T16:38:51.809Z,3.46
2023-01-17T16:41:21.738Z,3.47
2023-01-17T16:43:59.438Z,3.46
2023-01-17T16:46:28.378Z,3.49
2023-01-17T16:48:56.445Z,3.64
2023-01-17T16:51:24.718Z,3.50
2023-01-17T16:53:52.882Z,3.54
2023-01-17T16:56:22.232Z,3.57
2023-01-17T16:58:53.267Z,3.53
2023-01-17T17:01:22.991Z,3.56
2023-01-17T17:03:56.329Z,3.53
2023-01-17T17:06:24.858Z,3.49
2023-01-17T17:08:52.967Z,3.48
2023-01-17T17:11:24.320Z,3.45
2023-01-17T17:13:53.401Z,3.56
2023-01-17T17:16:26.949Z,3.56
2023-01-17T17:22:06.646Z,3.62
2023-01-17T17:24:34.813Z,3.62
2023-01-17T17:27:04.756Z,3.52
2023-01-17T17:29:32.749Z,3.54
2023-01-17T17:32:00.907Z,3.50
2023-01-17T17:34:31.194Z,3.53
2023-01-17T17:36:59.081Z,3.47
2023-01-17T17:39:27.002Z,3.44
2023-01-17T17:41:55.097Z,3.41
2023-01-17T17:44:24.522Z,3.46
2023-01-17T17:46:52.435Z,3.62
2023-01-17T17:49:22.182Z,3.52
2023-01-17T17:51:50.479Z,3.45
2023-01-17T17:54:18.919Z,3.32
2023-01-17T17:56:48.418Z,3.30
2023-01-17T17:59:19.543Z,3.29
2023-01-17T18:01:49.935Z,3.21
2023-01-17T18:04:18.553Z,3.07
2023-01-17T18:06:47.000Z,3.03
2023-01-17T18:09:15.417Z,3.00
2023-01-17T18:11:44.759Z,2.93
2023-01-17T18:14:15.427Z,2.88
2023-01-17T18:16:45.222Z,2.91
2023-01-17T18:19:17.882Z,2.86
2023-01-17T18:21:45.792Z,2.83
2023-01-17T18:24:15.595Z,2.83
2023-01-17T18:26:45.663Z,2.76
2023-01-17T18:29:16.480Z,2.56
2023-01-17T18:31:46.144Z,2.61
2023-01-17T18:34:17.519Z,2.66
2023-01-17T18:36:45.946Z,2.58
2023-01-17T18:39:16.203Z,2.53
2023-01-17T18:41:44.657Z,2.49
2023-01-17T18:44:13.028Z,2.52
2023-01-17T18:46:42.163Z,2.58
2023-01-17T18:49:12.375Z,2.58
2023-01-17T18:51:43.285Z,2.61
2023-01-17T18:54:11.491Z,2.63
2023-01-17T18:56:39.342Z,2.66
2023-01-17T18:59:09.466Z,2.63
2023-01-17T19:01:37.658Z,2.66
2023-01-17T19:04:06.812Z,2.67
2023-01-17T19:06:36.894Z,2.71
2023-01-17T19:09:08.540Z,2.70
2023-01-17T19:11:37.387Z,2.70
2023-01-17T19:14:05.717Z,2.73
2023-01-17T19:16:39.638Z,2.59
2023-01-17T19:19:10.467Z,2.54
2023-01-17T19:21:38.465Z,2.50
2023-01-17T19:24:08.937Z,2.49
2023-01-17T19:26:37.198Z,2.44
2023-01-17T19:29:06.734Z,2.43
2023-01-17T19:31:39.736Z,2.36
2023-01-17T19:34:07.698Z,2.19
2023-01-17T19:36:38.341Z,2.09
2023-01-17T19:39:10.438Z,2.03
2023-01-17T19:41:42.620Z,2.05
2023-01-17T19:44:12.762Z,2.03
2023-01-17T19:46:40.977Z,2.07
2023-01-17T19:49:10.710Z,2.05
2023-01-17T19:51:39.771Z,2.03
2023-01-17T19:54:09.485Z,1.98
2023-01-17T19:56:37.640Z,1.92
2023-01-17T19:59:06.483Z,1.96
2023-01-17T20:01:35.943Z,1.96
2023-01-17T20:04:05.223Z,1.96
2023-01-17T20:06:36.564Z,1.85
2023-01-17T20:09:05.932Z,1.84
2023-01-17T20:11:38.759Z,1.85
2023-01-17T20:14:06.640Z,1.80
2023-01-17T20:16:37.869Z,1.74
2023-01-17T20:19:06.379Z,1.72
2023-01-17T20:21:34.935Z,1.69
2023-01-17T20:24:04.279Z,1.70
2023-01-17T20:26:36.396Z,1.69
2023-01-17T20:29:10.496Z,1.72
2023-01-17T20:31:39.220Z,1.70
2023-01-17T20:34:09.967Z,1.77
2023-01-17T20:36:38.579Z,1.59
2023-01-17T20:39:08.466Z,1.56
2023-01-17T20:41:42.397Z,1.49
2023-01-17T20:44:14.376Z,1.49
2023-01-17T20:46:43.283Z,1.58
2023-01-17T20:49:15.569Z,1.62
2023-01-17T20:51:45.738Z,1.53
2023-01-17T20:54:16.107Z,1.57
2023-01-17T20:56:47.423Z,1.57
2023-01-17T20:59:17.946Z,1.64
2023-01-17T21:01:46.496Z,1.69
2023-01-17T21:04:15.088Z,1.72
2023-01-17T21:06:44.491Z,1.80
2023-01-17T21:09:14.147Z,1.82
2023-01-17T21:11:42.378Z,1.80
2023-01-17T21:14:12.027Z,1.88
2023-01-17T21:16:40.366Z,1.85
2023-01-17T21:19:09.211Z,1.84
2023-01-17T21:21:37.413Z,1.92
2023-01-17T21:24:06.220Z,1.88
2023-01-17T21:26:34.842Z,1.78
2023-01-17T21:29:03.646Z,1.82
2023-01-17T21:31:35.015Z,1.78
2023-01-17T21:34:05.870Z,1.78
2023-01-17T21:36:35.405Z,1.81
2023-01-17T21:39:06.772Z,1.80
2023-01-17T21:41:37.133Z,1.86
2023-01-17T21:44:08.801Z,1.88
2023-01-17T21:46:40.158Z,1.89
2023-01-17T21:49:10.718Z,1.90
2023-01-17T21:51:56.879Z,1.92
2023-01-17T21:54:51.298Z,1.82
2023-01-17T21:57:38.446Z,1.78
2023-01-17T22:00:09.015Z,1.87
2023-01-17T22:02:38.512Z,1.88
2023-01-17T22:05:07.811Z,1.88
2023-01-17T22:07:36.439Z,1.84
2023-01-17T22:10:04.400Z,1.84
2023-01-17T22:12:34.053Z,1.89
2023-01-17T22:15:01.960Z,1.90
2023-01-17T22:17:30.749Z,1.90
2023-01-17T22:20:00.430Z,1.93
2023-01-17T22:22:28.774Z,1.92
2023-01-17T22:24:56.625Z,1.91
2023-01-17T22:27:24.905Z,1.91
2023-01-17T22:29:52.744Z,1.90
2023-01-17T22:32:21.365Z,1.85
2023-01-17T22:34:49.484Z,1.84
2023-01-17T22:37:19.076Z,1.70
2023-01-17T22:39:46.944Z,1.65
2023-01-17T22:42:16.591Z,1.64
2023-01-17T22:44:45.739Z,1.61
2023-01-17T22:47:14.252Z,1.61
2023-01-17T22:49:42.232Z,1.60
2023-01-17T22:52:10.188Z,1.47
2023-01-17T22:54:39.750Z,1.46
2023-01-17T22:57:07.686Z,1.45
2023-01-17T22:59:36.513Z,1.52
2023-01-17T23:02:04.413Z,1.52
2023-01-17T23:04:32.318Z,1.54
2023-01-17T23:07:00.800Z,1.58
2023-01-17T23:09:29.138Z,1.62
2023-01-17T23:11:58.358Z,1.67
2023-01-17T23:14:28.377Z,1.61
2023-01-17T23:17:18.205Z,1.65
2023-01-17T23:19:49.389Z,1.68
2023-01-17T23:22:22.168Z,1.63
2023-01-17T23:24:52.699Z,1.67
2023-01-17T23:27:44.327Z,1.59
2023-01-17T23:30:15.636Z,1.68
2023-01-17T23:32:46.840Z,1.73
2023-01-17T23:35:15.797Z,1.75
2023-01-17T23:38:01.721Z,1.79
2023-01-17T23:40:30.405Z,1.80
2023-01-17T23:43:17.151Z,1.80
2023-01-17T23:45:46.036Z,1.79
2023-01-17T23:48:14.010Z,1.82
2023-01-17T23:50:44.233Z,1.80
2023-01-17T23:53:16.590Z,1.78
2023-01-17T23:55:45.747Z,1.81
2023-01-17T23:58:14.983Z,1.83
